createdAt,value
2019-01-30T00:00:49.499Z,-973.33
2019-01-30T00:01:49.613Z,-972.07
2019-01-30T00:02:49.764Z,-982.94
2019-01-30T00:03:49.979Z,-973.99
2019-01-30T00:04:50.191Z,-979.80
2019-01-30T00:05:50.334Z,-979.10
2019-01-30T00:06:50.608Z,-979.35
2019-01-30T00:07:50.689Z,-972.88
2019-01-30T00:08:50.872Z,-977.61
2019-01-30T00:09:51.071Z,-975.81
2019-01-30T00:10:51.273Z,-973.36
2019-01-30T00:11:51.453Z,-978.50
2019-01-30T00:12:51.681Z,-976.81
2019-01-30T00:13:51.802Z,-972.23
2019-01-30T00:14:51.977Z,-974.01
2019-01-30T00:15:56.373Z,-973.65
2019-01-30T00:16:52.389Z,-978.73
2019-01-30T00:17:52.552Z,-971.97
2019-01-30T00:18:52.751Z,-974.86
2019-01-30T00:19:52.919Z,-975.45
2019-01-30T00:20:53.131Z,-972.69
2019-01-30T00:21:53.369Z,-975.06
2019-01-30T00:22:53.465Z,-975.09
2019-01-30T00:23:53.682Z,-977.60
2019-01-30T00:24:53.872Z,-973.48
2019-01-30T00:25:54.027Z,-971.23
2019-01-30T00:26:54.220Z,-971.42
2019-01-30T00:27:54.410Z,-976.02
2019-01-30T00:28:54.618Z,-972.03
2019-01-30T00:30:03.654Z,-977.05
2019-01-30T00:30:55.987Z,-974.53
2019-01-30T00:31:55.146Z,-975.67
2019-01-30T00:32:55.346Z,-973.49
2019-01-30T00:33:55.522Z,-976.56
2019-01-30T00:34:55.681Z,-972.76
2019-01-30T00:35:56.128Z,-976.27
2019-01-30T00:36:56.053Z,-975.74
2019-01-30T00:37:58.432Z,-976.32
2019-01-30T00:38:56.452Z,-977.28
2019-01-30T00:39:56.622Z,-981.14
2019-01-30T00:40:56.827Z,-973.52
2019-01-30T00:41:56.973Z,-974.92
2019-01-30T00:42:57.184Z,-979.21
2019-01-30T00:43:57.383Z,-974.18
2019-01-30T00:44:57.558Z,-978.27
2019-01-30T00:45:57.817Z,-977.22
2019-01-30T00:46:57.905Z,-974.84
2019-01-30T00:47:58.085Z,-972.94
2019-01-30T00:48:58.301Z,-979.93
2019-01-30T00:49:58.464Z,-978.42
2019-01-30T00:50:58.675Z,-977.45
2019-01-30T00:51:58.837Z,-978.32
2019-01-30T00:52:59.014Z,-976.08
2019-01-30T00:53:59.237Z,-977.17
2019-01-30T00:54:59.371Z,-980.21
2019-01-30T00:55:59.592Z,-981.19
2019-01-30T00:56:59.750Z,-976.57
2019-01-30T00:57:59.930Z,-983.70
2019-01-30T00:59:00.141Z,-983.73
2019-01-30T01:00:00.326Z,-980.52
2019-01-30T01:01:00.512Z,-982.16
2019-01-30T01:02:00.691Z,-981.72
2019-01-30T01:03:00.960Z,-983.40
2019-01-30T01:04:01.038Z,-979.80
2019-01-30T01:05:01.206Z,-986.87
2019-01-30T01:06:01.431Z,-978.40
2019-01-30T01:07:01.588Z,-980.05
2019-01-30T01:08:01.804Z,-967.64
2019-01-30T01:09:01.972Z,-970.20
2019-01-30T01:10:02.130Z,-963.96
2019-01-30T01:11:02.418Z,-976.26
2019-01-30T01:12:02.519Z,-981.14
2019-01-30T01:13:02.731Z,-979.56
2019-01-30T01:14:02.911Z,-980.98
2019-01-30T01:15:03.067Z,-976.60
2019-01-30T01:16:03.276Z,-980.03
2019-01-30T01:17:03.466Z,-982.93
2019-01-30T01:18:03.669Z,-982.87
2019-01-30T01:19:03.922Z,-975.76
2019-01-30T01:20:03.986Z,-981.77
2019-01-30T01:21:04.179Z,-982.27
2019-01-30T01:22:04.392Z,-982.83
2019-01-30T01:23:04.589Z,-980.22
2019-01-30T01:24:04.767Z,-985.42
2019-01-30T01:25:04.928Z,-978.76
2019-01-30T01:26:05.109Z,-979.34
2019-01-30T01:27:05.331Z,-984.17
2019-01-30T01:28:05.471Z,-981.92
2019-01-30T01:29:05.670Z,-980.53
2019-01-30T01:30:05.836Z,-983.95
2019-01-30T01:31:06.027Z,-983.30
2019-01-30T01:32:06.219Z,-980.53
2019-01-30T01:33:06.368Z,-980.84
2019-01-30T01:34:06.595Z,-976.91
2019-01-30T01:35:06.790Z,-983.21
2019-01-30T01:36:06.994Z,-981.04
2019-01-30T01:37:07.142Z,-981.35
2019-01-30T01:38:07.294Z,-984.48
2019-01-30T01:39:07.509Z,-979.27
2019-01-30T01:40:07.678Z,-979.98
2019-01-30T01:41:07.869Z,-980.92
2019-01-30T01:42:08.061Z,-985.37
2019-01-30T01:43:08.243Z,-985.75
2019-01-30T01:44:08.511Z,-982.44
2019-01-30T01:45:08.601Z,-986.53
2019-01-30T01:46:08.806Z,-983.73
2019-01-30T01:47:08.984Z,-984.79
2019-01-30T01:48:09.182Z,-987.44
2019-01-30T01:49:09.341Z,-987.86
2019-01-30T01:50:09.517Z,-986.04
2019-01-30T01:51:09.701Z,-982.97
2019-01-30T01:52:10.048Z,-982.85
2019-01-30T01:53:10.069Z,-980.93
2019-01-30T01:54:10.252Z,-982.61
2019-01-30T01:55:10.435Z,-986.71
2019-01-30T01:56:10.619Z,-984.92
2019-01-30T01:57:10.824Z,-932.26
2019-01-30T01:58:11.011Z,-934.87
2019-01-30T01:59:11.191Z,-929.72
2019-01-30T02:00:11.388Z,-932.15
2019-01-30T02:01:11.525Z,-928.83
2019-01-30T02:02:11.734Z,-930.44
2019-01-30T02:03:11.914Z,-931.27
2019-01-30T02:04:12.100Z,-930.66
2019-01-30T02:05:12.255Z,-930.44
2019-01-30T02:06:12.464Z,-931.63
2019-01-30T02:07:12.679Z,-930.08
2019-01-30T02:08:12.903Z,-931.54
2019-01-30T02:09:13.023Z,-926.67
2019-01-30T02:10:13.195Z,-925.76
2019-01-30T02:11:13.367Z,-927.59
2019-01-30T02:12:13.579Z,-927.09
2019-01-30T02:13:13.772Z,-923.64
2019-01-30T02:14:13.951Z,-933.59
2019-01-30T02:15:14.139Z,-930.85
2019-01-30T02:16:14.390Z,-932.39
2019-01-30T02:17:14.566Z,-927.49
2019-01-30T02:18:14.717Z,-931.21
2019-01-30T02:19:14.873Z,-930.89
2019-01-30T02:20:15.074Z,-925.60
2019-01-30T02:21:15.250Z,-934.00
2019-01-30T02:22:15.460Z,-927.70
2019-01-30T02:23:15.612Z,-929.67
2019-01-30T02:24:15.820Z,-927.97
2019-01-30T02:25:16.167Z,-925.52
2019-01-30T02:26:16.190Z,-934.07
2019-01-30T02:27:16.377Z,-931.63
2019-01-30T02:28:16.544Z,-927.03
2019-01-30T02:29:16.731Z,-930.89
2019-01-30T02:30:17.071Z,-932.17
2019-01-30T02:31:17.137Z,-931.77
2019-01-30T02:32:17.322Z,-933.11
2019-01-30T02:33:17.578Z,-931.55
2019-01-30T02:34:17.689Z,-900.59
2019-01-30T02:35:17.872Z,-903.67
2019-01-30T02:36:18.032Z,-918.60
2019-01-30T02:37:18.241Z,-921.27
2019-01-30T02:38:18.396Z,-922.66
2019-01-30T02:39:18.599Z,-925.18
2019-01-30T02:40:18.780Z,-930.92
2019-01-30T02:41:19.007Z,-927.99
2019-01-30T02:42:19.133Z,-935.20
2019-01-30T02:43:19.315Z,-930.31
2019-01-30T02:44:19.477Z,-935.60
2019-01-30T02:45:19.674Z,-938.22
2019-01-30T02:46:19.879Z,-936.83
2019-01-30T02:47:20.063Z,-931.65
2019-01-30T02:48:20.250Z,-937.05
2019-01-30T02:49:20.453Z,-940.15
2019-01-30T02:50:20.653Z,-935.49
2019-01-30T02:51:20.781Z,-938.40
2019-01-30T02:52:20.988Z,-942.47
2019-01-30T02:53:21.174Z,-936.83
2019-01-30T02:54:21.333Z,-939.00
2019-01-30T02:55:21.538Z,-940.28
2019-01-30T02:56:21.676Z,-937.07
2019-01-30T02:57:21.944Z,-938.30
2019-01-30T02:58:22.235Z,-937.05
2019-01-30T02:59:22.278Z,-938.40
2019-01-30T03:00:22.475Z,-936.63
2019-01-30T03:01:22.629Z,-937.11
2019-01-30T03:02:22.845Z,-935.24
2019-01-30T03:03:23.081Z,-931.73
2019-01-30T03:04:23.210Z,-940.29
2019-01-30T03:05:23.417Z,-938.04
2019-01-30T03:06:23.682Z,-929.30
2019-01-30T03:07:23.792Z,-931.04
2019-01-30T03:08:23.957Z,-930.61
2019-01-30T03:09:24.132Z,-931.81
2019-01-30T03:10:24.330Z,-936.02
2019-01-30T03:11:24.511Z,-936.30
2019-01-30T03:12:24.692Z,-936.86
2019-01-30T03:13:24.874Z,-932.21
2019-01-30T03:14:25.155Z,-934.11
2019-01-30T03:15:25.265Z,-935.13
2019-01-30T03:16:25.440Z,-930.50
2019-01-30T03:17:25.602Z,-937.48
2019-01-30T03:18:25.783Z,-936.77
2019-01-30T03:19:25.986Z,-936.42
2019-01-30T03:20:26.189Z,-937.32
2019-01-30T03:21:26.364Z,-936.16
2019-01-30T03:22:26.587Z,-933.19
2019-01-30T03:23:26.709Z,-929.72
2019-01-30T03:24:26.917Z,-930.73
2019-01-30T03:25:27.140Z,-930.96
2019-01-30T03:26:27.303Z,-934.27
2019-01-30T03:27:27.477Z,-934.37
2019-01-30T03:28:27.681Z,-929.45
2019-01-30T03:29:27.853Z,-936.70
2019-01-30T03:30:28.149Z,-938.43
2019-01-30T03:31:28.325Z,-933.45
2019-01-30T03:32:28.426Z,-931.20
2019-01-30T03:33:28.631Z,-930.95
2019-01-30T03:34:28.819Z,-937.92
2019-01-30T03:35:28.983Z,-931.48
2019-01-30T03:36:29.165Z,-934.10
2019-01-30T03:37:29.348Z,-986.40
2019-01-30T03:38:29.577Z,-982.65
2019-01-30T03:39:29.826Z,-977.74
2019-01-30T03:40:29.925Z,-974.27
2019-01-30T03:41:30.102Z,-984.30
2019-01-30T03:42:30.292Z,-981.15
2019-01-30T03:43:30.490Z,-984.42
2019-01-30T03:44:30.681Z,-974.61
2019-01-30T03:45:30.866Z,-970.82
2019-01-30T03:46:31.004Z,-977.60
2019-01-30T03:47:31.309Z,-980.46
2019-01-30T03:48:31.414Z,-980.32
2019-01-30T03:49:31.611Z,-984.16
2019-01-30T03:50:31.773Z,-980.40
2019-01-30T03:51:31.941Z,-975.93
2019-01-30T03:52:32.138Z,-976.14
2019-01-30T03:53:32.575Z,-979.75
2019-01-30T03:54:32.534Z,-979.71
2019-01-30T03:55:32.747Z,-981.12
2019-01-30T03:56:32.846Z,-978.47
2019-01-30T03:57:33.051Z,-981.29
2019-01-30T03:58:33.268Z,-979.94
2019-01-30T03:59:33.463Z,-973.48
2019-01-30T04:00:33.637Z,-977.91
2019-01-30T04:01:33.807Z,-982.35
2019-01-30T04:02:33.990Z,-984.61
2019-01-30T04:03:34.266Z,-980.17
2019-01-30T04:04:34.375Z,-977.44
2019-01-30T04:05:34.547Z,-980.92
2019-01-30T04:06:34.714Z,-982.59
2019-01-30T04:07:34.894Z,-982.05
2019-01-30T04:08:35.103Z,-985.44
2019-01-30T04:09:35.264Z,-979.88
2019-01-30T04:10:35.477Z,-982.11
2019-01-30T04:11:35.690Z,-982.97
2019-01-30T04:12:35.881Z,-982.34
2019-01-30T04:13:36.015Z,-978.22
2019-01-30T04:14:36.179Z,-976.11
2019-01-30T04:15:36.410Z,-974.84
2019-01-30T04:16:36.563Z,-976.74
2019-01-30T04:17:36.758Z,-979.66
2019-01-30T04:18:36.954Z,-977.98
2019-01-30T04:19:37.220Z,-978.54
2019-01-30T04:20:37.410Z,-977.93
2019-01-30T04:21:37.513Z,-980.49
2019-01-30T04:22:37.705Z,-979.17
2019-01-30T04:23:37.901Z,-982.92
2019-01-30T04:24:38.050Z,-982.83
2019-01-30T04:25:38.234Z,-982.46
2019-01-30T04:26:38.450Z,-977.47
2019-01-30T04:27:38.692Z,-982.93
2019-01-30T04:28:38.987Z,-982.33
2019-01-30T04:29:38.988Z,-981.72
2019-01-30T04:30:39.282Z,-975.81
2019-01-30T04:31:39.403Z,-975.84
2019-01-30T04:32:39.605Z,-977.51
2019-01-30T04:33:39.813Z,-984.64
2019-01-30T04:34:39.946Z,-984.84
2019-01-30T04:35:40.115Z,-980.62
2019-01-30T04:36:40.355Z,-978.98
2019-01-30T04:37:40.486Z,-983.17
2019-01-30T04:38:40.700Z,-983.40
2019-01-30T04:39:40.860Z,-979.36
2019-01-30T04:40:41.046Z,-977.42
2019-01-30T04:41:41.231Z,-978.31
2019-01-30T04:42:41.410Z,-980.30
2019-01-30T04:43:41.619Z,-981.10
2019-01-30T04:44:41.868Z,-976.21
2019-01-30T04:45:41.945Z,-983.40
2019-01-30T04:46:42.154Z,-979.60
2019-01-30T04:47:42.321Z,-975.86
2019-01-30T04:48:42.532Z,-979.80
2019-01-30T04:49:42.716Z,-978.36
2019-01-30T04:50:42.897Z,-976.84
2019-01-30T04:51:43.106Z,-977.12
2019-01-30T04:52:43.325Z,-978.64
2019-01-30T04:53:43.485Z,-972.57
2019-01-30T04:54:43.656Z,-976.16
2019-01-30T04:55:43.814Z,-970.96
2019-01-30T04:56:44.021Z,-913.25
2019-01-30T04:57:44.186Z,-939.90
2019-01-30T04:58:44.373Z,-907.27
2019-01-30T04:59:44.552Z,-906.91
2019-01-30T05:00:44.755Z,-919.43
2019-01-30T05:01:49.616Z,-918.74
2019-01-30T05:02:46.155Z,-921.76
2019-01-30T05:03:45.327Z,-925.90
2019-01-30T05:04:45.506Z,-921.93
2019-01-30T05:05:45.706Z,-916.19
2019-01-30T05:06:45.905Z,-925.52
2019-01-30T05:07:46.107Z,-922.45
2019-01-30T05:08:46.283Z,-917.59
2019-01-30T05:09:46.581Z,-920.24
2019-01-30T05:10:46.629Z,-925.03
2019-01-30T05:11:46.836Z,-915.16
2019-01-30T05:12:46.997Z,-922.53
2019-01-30T05:13:47.204Z,-918.99
2019-01-30T05:14:47.361Z,-913.93
2019-01-30T05:15:47.538Z,-916.91
2019-01-30T05:16:47.777Z,-917.28
2019-01-30T05:17:48.014Z,-917.07
2019-01-30T05:18:48.108Z,-915.42
2019-01-30T05:19:48.279Z,-917.50
2019-01-30T05:20:48.448Z,-915.35
2019-01-30T05:21:48.666Z,-921.25
2019-01-30T05:22:48.891Z,-915.27
2019-01-30T05:23:49.049Z,-923.10
2019-01-30T05:24:49.212Z,-918.42
2019-01-30T05:25:49.481Z,-922.24
2019-01-30T05:26:49.569Z,-922.04
2019-01-30T05:27:49.774Z,-921.11
2019-01-30T05:28:49.957Z,-916.03
2019-01-30T05:29:50.137Z,-915.62
2019-01-30T05:30:50.322Z,-915.60
2019-01-30T05:32:00.676Z,-918.70
2019-01-30T05:32:51.701Z,-916.76
2019-01-30T05:33:50.911Z,-921.68
2019-01-30T05:34:51.183Z,-915.69
2019-01-30T05:35:51.284Z,-912.66
2019-01-30T05:36:51.481Z,-906.66
2019-01-30T05:37:51.755Z,-907.94
2019-01-30T05:38:51.843Z,-909.61
2019-01-30T05:39:52.039Z,-918.70
2019-01-30T05:40:52.205Z,-918.88
2019-01-30T05:41:52.413Z,-915.39
2019-01-30T05:42:52.679Z,-913.51
2019-01-30T05:43:52.763Z,-918.58
2019-01-30T05:44:52.955Z,-917.44
2019-01-30T05:45:53.121Z,-915.81
2019-01-30T05:46:53.326Z,-914.00
2019-01-30T05:47:53.596Z,-911.63
2019-01-30T05:48:53.672Z,-911.03
2019-01-30T05:49:53.889Z,-914.30
2019-01-30T05:50:54.171Z,-907.01
2019-01-30T05:51:54.240Z,-909.37
2019-01-30T05:52:54.403Z,-920.96
2019-01-30T05:53:54.611Z,-908.09
2019-01-30T05:54:54.800Z,-914.58
2019-01-30T05:55:54.970Z,-910.47
2019-01-30T05:56:55.190Z,-910.68
2019-01-30T05:57:55.334Z,-905.81
2019-01-30T05:58:55.859Z,-900.93
2019-01-30T05:59:55.694Z,-912.33
2019-01-30T06:00:55.882Z,-906.59
2019-01-30T06:01:56.083Z,-908.61
2019-01-30T06:02:56.248Z,-912.29
2019-01-30T06:03:56.461Z,-912.01
2019-01-30T06:04:56.654Z,-912.21
2019-01-30T06:05:56.787Z,-908.99
2019-01-30T06:06:57.085Z,-912.32
2019-01-30T06:07:57.215Z,-912.00
2019-01-30T06:08:57.370Z,-905.88
2019-01-30T06:09:57.604Z,-906.71
2019-01-30T06:10:57.733Z,-904.65
2019-01-30T06:11:57.950Z,-906.55
2019-01-30T06:12:58.146Z,-914.45
2019-01-30T06:13:58.314Z,-911.49
2019-01-30T06:14:58.551Z,-912.81
2019-01-30T06:15:58.826Z,-914.66
2019-01-30T06:16:58.890Z,-913.44
2019-01-30T06:17:59.051Z,-913.73
2019-01-30T06:18:59.244Z,-905.75
2019-01-30T06:19:59.464Z,-912.27
2019-01-30T06:20:59.607Z,-907.46
2019-01-30T06:21:59.812Z,-912.28
2019-01-30T06:23:01.677Z,-908.70
2019-01-30T06:24:00.302Z,-916.30
2019-01-30T06:25:00.394Z,-912.29
2019-01-30T06:26:00.544Z,-911.15
2019-01-30T06:27:00.730Z,-915.77
2019-01-30T06:28:00.917Z,-909.10
2019-01-30T06:29:01.111Z,-912.02
2019-01-30T06:30:01.347Z,-912.02
2019-01-30T06:31:01.481Z,-911.45
2019-01-30T06:32:01.711Z,-905.97
2019-01-30T06:33:01.816Z,-912.44
2019-01-30T06:34:02.023Z,-905.95
2019-01-30T06:35:02.241Z,-906.75
2019-01-30T06:36:02.395Z,-907.88
2019-01-30T06:37:02.580Z,-903.07
2019-01-30T06:38:02.779Z,-902.67
2019-01-30T06:39:02.947Z,-905.76
2019-01-30T06:40:03.269Z,-907.44
2019-01-30T06:41:03.333Z,-906.22
2019-01-30T06:42:03.519Z,-904.47
2019-01-30T06:43:03.726Z,-906.69
2019-01-30T06:44:03.915Z,-912.17
2019-01-30T06:45:04.162Z,-914.65
2019-01-30T06:46:04.285Z,-910.36
2019-01-30T06:47:04.491Z,-907.56
2019-01-30T06:48:04.721Z,-911.59
2019-01-30T06:49:04.949Z,-908.01
2019-01-30T06:50:05.055Z,-910.04
2019-01-30T06:51:05.239Z,-908.52
2019-01-30T06:52:05.436Z,-907.21
2019-01-30T06:53:05.637Z,-909.92
2019-01-30T06:54:05.795Z,-904.63
2019-01-30T06:55:06.007Z,-904.67
2019-01-30T06:56:06.181Z,-907.79
2019-01-30T06:57:06.455Z,-911.48
2019-01-30T06:58:06.558Z,-907.11
2019-01-30T06:59:06.728Z,-911.70
2019-01-30T07:00:06.933Z,-903.68
2019-01-30T07:01:07.086Z,-900.10
2019-01-30T07:02:07.275Z,-899.30
2019-01-30T07:03:07.495Z,-900.19
2019-01-30T07:04:07.669Z,-906.45
2019-01-30T07:05:07.972Z,-909.99
2019-01-30T07:06:08.041Z,-913.12
2019-01-30T07:07:08.208Z,-909.72
2019-01-30T07:08:08.646Z,-909.25
2019-01-30T07:09:08.579Z,-904.58
2019-01-30T07:10:08.788Z,-899.46
2019-01-30T07:11:10.635Z,-905.34
2019-01-30T07:12:09.124Z,-902.92
2019-01-30T07:13:09.358Z,-902.65
2019-01-30T07:14:09.488Z,-901.41
2019-01-30T07:15:09.697Z,-904.08
2019-01-30T07:16:09.890Z,-904.85
2019-01-30T07:17:10.047Z,-896.70
2019-01-30T07:18:10.277Z,-905.09
2019-01-30T07:19:10.401Z,-904.02
2019-01-30T07:20:10.640Z,-901.89
2019-01-30T07:21:10.841Z,-904.50
2019-01-30T07:22:10.951Z,-903.69
2019-01-30T07:23:11.165Z,-901.82
2019-01-30T07:24:11.318Z,-910.72
2019-01-30T07:25:11.541Z,-905.52
2019-01-30T07:26:11.930Z,-908.15
2019-01-30T07:27:11.925Z,-902.04
2019-01-30T07:28:12.107Z,-901.04
2019-01-30T07:29:12.511Z,-903.90
2019-01-30T07:30:12.533Z,-900.08
2019-01-30T07:31:12.659Z,-908.22
2019-01-30T07:32:12.814Z,-910.35
2019-01-30T07:33:13.013Z,-908.81
2019-01-30T07:34:13.178Z,-907.55
2019-01-30T07:35:13.386Z,-905.66
2019-01-30T07:36:13.563Z,-900.46
2019-01-30T07:37:13.738Z,-908.36
2019-01-30T07:38:14.034Z,-907.17
2019-01-30T07:39:14.093Z,-910.78
2019-01-30T07:40:14.276Z,-905.86
2019-01-30T07:41:14.480Z,-904.29
2019-01-30T07:42:14.666Z,-907.60
2019-01-30T07:43:14.865Z,-902.96
2019-01-30T07:44:15.036Z,-904.28
2019-01-30T07:45:15.235Z,-909.52
2019-01-30T07:46:16.024Z,-915.46
2019-01-30T07:47:15.602Z,-912.66
2019-01-30T07:48:15.777Z,-914.38
2019-01-30T07:49:15.946Z,-912.73
2019-01-30T07:50:16.127Z,-911.88
2019-01-30T07:51:16.351Z,-911.69
2019-01-30T07:52:16.478Z,-908.14
2019-01-30T07:53:16.697Z,-905.41
2019-01-30T07:54:16.957Z,-898.26
2019-01-30T07:55:17.134Z,-892.15
2019-01-30T07:56:17.359Z,-898.84
2019-01-30T07:57:17.551Z,-908.85
2019-01-30T07:58:17.735Z,-911.97
2019-01-30T07:59:17.919Z,-908.40
2019-01-30T08:00:18.135Z,-911.10
2019-01-30T08:01:18.352Z,-906.59
2019-01-30T08:02:18.561Z,-896.92
2019-01-30T08:03:18.713Z,-907.49
2019-01-30T08:04:18.882Z,-911.26
2019-01-30T08:05:19.091Z,-903.06
2019-01-30T08:06:19.678Z,-913.88
2019-01-30T08:07:19.482Z,-914.79
2019-01-30T08:08:19.680Z,-907.30
2019-01-30T08:09:19.853Z,-910.51
2019-01-30T08:10:20.048Z,-915.65
2019-01-30T08:11:20.357Z,-907.15
2019-01-30T08:12:20.448Z,-903.99
2019-01-30T08:13:20.645Z,-913.18
2019-01-30T08:14:20.795Z,-913.42
2019-01-30T08:15:21.010Z,-904.75
2019-01-30T08:16:21.910Z,-908.51
2019-01-30T08:17:21.439Z,-912.68
2019-01-30T08:18:21.612Z,-915.85
2019-01-30T08:19:21.899Z,-906.89
2019-01-30T08:20:21.985Z,-909.75
2019-01-30T08:21:22.196Z,-914.15
2019-01-30T08:22:22.389Z,-903.69
2019-01-30T08:23:22.570Z,-915.34
2019-01-30T08:24:22.773Z,-913.09
2019-01-30T08:25:23.139Z,-904.87
2019-01-30T08:26:25.419Z,-898.68
2019-01-30T08:27:23.483Z,-916.78
2019-01-30T08:28:23.658Z,-911.39
2019-01-30T08:29:23.866Z,-962.31
2019-01-30T08:30:24.161Z,-962.46
2019-01-30T08:31:24.058Z,-966.38
2019-01-30T08:32:24.210Z,-968.39
2019-01-30T08:33:24.403Z,-970.44
2019-01-30T08:34:24.558Z,-966.59
2019-01-30T08:35:25.037Z,-959.99
2019-01-30T08:36:25.041Z,-952.94
2019-01-30T08:37:25.188Z,-964.20
2019-01-30T08:38:25.394Z,-962.49
2019-01-30T08:39:25.576Z,-961.88
2019-01-30T08:40:25.756Z,-963.88
2019-01-30T08:41:25.968Z,-964.94
2019-01-30T08:42:26.147Z,-965.46
2019-01-30T08:43:26.537Z,-962.01
2019-01-30T08:44:26.584Z,-966.34
2019-01-30T08:45:26.748Z,-967.52
2019-01-30T08:46:26.948Z,-964.20
2019-01-30T08:47:27.124Z,-966.84
2019-01-30T08:48:29.976Z,-964.47
2019-01-30T08:49:27.523Z,-965.79
2019-01-30T08:50:27.720Z,-972.91
2019-01-30T08:51:27.937Z,-975.34
2019-01-30T08:52:28.191Z,-972.14
2019-01-30T08:53:28.299Z,-970.06
2019-01-30T08:54:28.481Z,-968.53
2019-01-30T08:55:28.671Z,-961.99
2019-01-30T08:56:28.882Z,-959.82
2019-01-30T08:57:29.041Z,-975.47
2019-01-30T08:58:29.238Z,-973.63
2019-01-30T08:59:29.460Z,-969.35
2019-01-30T09:00:29.752Z,-969.49
2019-01-30T09:01:29.854Z,-967.15
2019-01-30T09:02:30.013Z,-961.13
2019-01-30T09:03:30.236Z,-967.46
2019-01-30T09:04:30.439Z,-973.36
2019-01-30T09:05:30.616Z,-974.96
2019-01-30T09:06:30.812Z,-974.16
2019-01-30T09:07:30.995Z,-975.21
2019-01-30T09:08:31.245Z,-975.14
2019-01-30T09:09:31.374Z,-970.67
2019-01-30T09:10:31.565Z,-965.22
2019-01-30T09:11:31.781Z,-971.25
2019-01-30T09:12:31.939Z,-979.69
2019-01-30T09:13:32.154Z,-977.54
2019-01-30T09:14:32.338Z,-981.12
2019-01-30T09:15:32.565Z,-958.75
2019-01-30T09:16:32.790Z,-960.31
2019-01-30T09:17:32.885Z,-968.22
2019-01-30T09:18:33.113Z,-976.52
2019-01-30T09:19:33.293Z,-981.11
2019-01-30T09:20:33.456Z,-975.25
2019-01-30T09:21:33.678Z,-967.26
2019-01-30T09:22:33.852Z,-973.95
2019-01-30T09:23:34.061Z,-975.42
2019-01-30T09:24:34.296Z,-974.26
2019-01-30T09:25:34.470Z,-975.57
2019-01-30T09:26:34.629Z,-982.99
2019-01-30T09:27:34.828Z,-977.69
2019-01-30T09:28:34.999Z,-980.29
2019-01-30T09:29:35.203Z,-977.87
2019-01-30T09:30:35.376Z,-968.98
2019-01-30T09:31:35.571Z,-975.08
2019-01-30T09:32:35.793Z,-916.36
2019-01-30T09:33:36.072Z,-961.65
2019-01-30T09:34:36.159Z,-968.90
2019-01-30T09:35:36.327Z,-952.76
2019-01-30T09:36:36.522Z,-970.24
2019-01-30T09:37:36.746Z,-963.12
2019-01-30T09:38:36.897Z,-971.89
2019-01-30T09:39:37.107Z,-974.75
2019-01-30T09:40:37.274Z,-974.32
2019-01-30T09:41:37.556Z,-977.31
2019-01-30T09:42:37.667Z,-977.13
2019-01-30T09:43:37.854Z,-969.91
2019-01-30T09:44:38.070Z,-974.67
2019-01-30T09:45:38.235Z,-974.48
2019-01-30T09:46:38.451Z,-972.86
2019-01-30T09:47:38.598Z,-974.30
2019-01-30T09:48:38.812Z,-969.14
2019-01-30T09:49:39.132Z,-970.52
2019-01-30T09:50:39.168Z,-972.43
2019-01-30T09:51:39.385Z,-972.75
2019-01-30T09:52:39.564Z,-976.61
2019-01-30T09:53:39.749Z,-975.46
2019-01-30T09:54:40.132Z,-970.33
2019-01-30T09:55:40.131Z,-965.96
2019-01-30T09:56:40.325Z,-970.91
2019-01-30T09:57:40.574Z,-968.12
2019-01-30T09:58:40.665Z,-965.09
2019-01-30T09:59:40.929Z,-975.55
2019-01-30T10:00:41.096Z,-976.88
2019-01-30T10:01:41.302Z,-969.17
2019-01-30T10:02:41.582Z,-957.07
2019-01-30T10:03:41.703Z,-971.33
2019-01-30T10:04:41.970Z,-968.89
2019-01-30T10:05:42.074Z,-977.97
2019-01-30T10:06:42.331Z,-973.40
2019-01-30T10:07:42.494Z,-976.89
2019-01-30T10:08:42.661Z,-976.92
2019-01-30T10:09:42.870Z,-977.57
2019-01-30T10:10:43.028Z,-980.79
2019-01-30T10:11:43.238Z,-976.20
2019-01-30T10:12:43.464Z,-980.16
2019-01-30T10:13:43.612Z,-980.26
2019-01-30T10:14:43.944Z,-976.35
2019-01-30T10:15:44.028Z,-977.12
2019-01-30T10:16:44.233Z,-965.99
2019-01-30T10:17:44.444Z,-965.25
2019-01-30T10:18:44.585Z,-966.54
2019-01-30T10:19:44.802Z,-972.50
2019-01-30T10:20:44.981Z,-971.34
2019-01-30T10:21:45.158Z,-974.16
2019-01-30T10:22:45.455Z,-976.60
2019-01-30T10:23:45.541Z,-967.65
2019-01-30T10:24:45.754Z,-976.41
2019-01-30T10:25:45.928Z,-975.05
2019-01-30T10:26:46.100Z,-981.23
2019-01-30T10:27:46.555Z,-982.51
2019-01-30T10:28:46.498Z,-989.12
2019-01-30T10:29:46.706Z,-980.75
2019-01-30T10:30:46.955Z,-985.67
2019-01-30T10:31:47.055Z,-979.92
2019-01-30T10:32:47.256Z,-973.88
2019-01-30T10:33:47.447Z,-971.09
2019-01-30T10:34:47.658Z,-975.70
2019-01-30T10:35:48.116Z,-972.56
2019-01-30T10:36:48.013Z,-966.65
2019-01-30T10:37:48.227Z,-974.05
2019-01-30T10:38:48.415Z,-982.01
2019-01-30T10:39:48.616Z,-983.89
2019-01-30T10:40:48.806Z,-979.11
2019-01-30T10:41:48.992Z,-967.17
2019-01-30T10:42:49.203Z,-983.99
2019-01-30T10:43:49.377Z,-986.34
2019-01-30T10:44:49.577Z,-983.78
2019-01-30T10:45:49.788Z,-980.67
2019-01-30T10:46:49.993Z,-982.16
2019-01-30T10:47:50.289Z,-989.14
2019-01-30T10:48:50.344Z,-982.66
2019-01-30T10:49:50.541Z,-979.37
2019-01-30T10:50:50.720Z,-982.08
2019-01-30T10:51:50.920Z,-983.16
2019-01-30T10:52:51.160Z,-974.84
2019-01-30T10:53:51.302Z,-980.22
2019-01-30T10:54:51.511Z,-962.84
2019-01-30T10:55:51.780Z,-970.79
2019-01-30T10:56:51.888Z,-974.98
2019-01-30T10:57:52.125Z,-974.96
2019-01-30T10:58:52.273Z,-980.46
2019-01-30T10:59:52.458Z,-977.71
2019-01-30T11:00:52.648Z,-982.57
2019-01-30T11:01:52.854Z,-988.63
2019-01-30T11:02:53.121Z,-982.40
2019-01-30T11:03:57.493Z,-987.11
2019-01-30T11:04:53.411Z,-981.96
2019-01-30T11:05:53.587Z,-984.34
2019-01-30T11:06:53.816Z,-924.57
2019-01-30T11:07:54.032Z,-923.93
2019-01-30T11:08:54.182Z,-924.93
2019-01-30T11:09:54.373Z,-928.08
2019-01-30T11:10:54.586Z,-923.37
2019-01-30T11:11:54.835Z,-925.14
2019-01-30T11:12:54.973Z,-930.14
2019-01-30T11:13:55.144Z,-923.30
2019-01-30T11:14:55.336Z,-923.57
2019-01-30T11:15:55.552Z,-924.89
2019-01-30T11:16:55.714Z,-924.07
2019-01-30T11:17:56.010Z,-936.06
2019-01-30T11:18:56.105Z,-933.04
2019-01-30T11:19:56.355Z,-919.21
2019-01-30T11:20:56.577Z,-931.80
2019-01-30T11:21:56.689Z,-932.69
2019-01-30T11:22:56.909Z,-923.77
2019-01-30T11:23:57.174Z,-922.74
2019-01-30T11:24:57.292Z,-923.17
2019-01-30T11:25:57.504Z,-924.46
2019-01-30T11:26:57.682Z,-926.98
2019-01-30T11:27:57.913Z,-924.52
2019-01-30T11:28:58.157Z,-924.58
2019-01-30T11:29:58.244Z,-923.32
2019-01-30T11:30:58.451Z,-921.09
2019-01-30T11:31:58.631Z,-924.69
2019-01-30T11:32:58.882Z,-933.47
2019-01-30T11:34:07.075Z,-925.45
2019-01-30T11:35:00.315Z,-914.01
2019-01-30T11:35:59.419Z,-908.28
2019-01-30T11:37:00.213Z,-925.64
2019-01-30T11:37:59.832Z,-914.21
2019-01-30T11:38:59.966Z,-938.19
2019-01-30T11:40:00.209Z,-924.99
2019-01-30T11:41:00.379Z,-926.93
2019-01-30T11:42:00.560Z,-924.71
2019-01-30T11:43:00.793Z,-924.66
2019-01-30T11:44:00.945Z,-929.48
2019-01-30T11:45:01.210Z,-930.40
2019-01-30T11:46:01.323Z,-930.38
2019-01-30T11:47:01.530Z,-930.13
2019-01-30T11:48:01.711Z,-926.80
2019-01-30T11:49:01.889Z,-932.11
2019-01-30T11:50:02.086Z,-926.96
2019-01-30T11:51:02.287Z,-935.81
2019-01-30T11:52:02.475Z,-933.32
2019-01-30T11:53:02.748Z,-911.52
2019-01-30T11:54:02.845Z,-923.27
2019-01-30T11:55:03.039Z,-926.37
2019-01-30T11:56:03.248Z,-922.92
2019-01-30T11:57:03.421Z,-926.37
2019-01-30T11:58:03.640Z,-936.91
2019-01-30T11:59:03.813Z,-935.32
2019-01-30T12:00:03.998Z,-933.42
2019-01-30T12:01:04.245Z,-925.92
2019-01-30T12:02:04.513Z,-933.13
2019-01-30T12:03:04.602Z,-928.48
2019-01-30T12:04:04.858Z,-926.88
2019-01-30T12:05:04.963Z,-930.44
2019-01-30T12:06:05.401Z,-923.94
2019-01-30T12:07:05.351Z,-925.46
2019-01-30T12:08:05.521Z,-924.67